createdAt,value
2023-05-19T00:00:37.423Z,9.60
2023-05-19T00:03:10.184Z,9.65
2023-05-19T00:05:46.331Z,9.62
2023-05-19T00:08:18.661Z,9.50
2023-05-19T00:10:48.252Z,9.61
2023-05-19T00:13:19.731Z,9.56
2023-05-19T00:15:48.990Z,9.55
2023-05-19T00:18:18.139Z,8.98
2023-05-19T00:20:46.926Z,9.45
2023-05-19T00:23:17.192Z,9.44
2023-05-19T00:25:46.017Z,9.46
2023-05-19T00:28:14.876Z,9.41
2023-05-19T00:30:43.740Z,9.40
2023-05-19T00:33:12.656Z,9.37
2023-05-19T00:35:41.706Z,9.35
2023-05-19T00:38:10.464Z,9.33
2023-05-19T00:40:41.064Z,9.24
2023-05-19T00:43:10.742Z,9.25
2023-05-19T00:45:39.683Z,9.22
2023-05-19T00:48:10.587Z,9.24
2023-05-19T00:50:39.673Z,9.20
2023-05-19T00:53:09.107Z,9.22
2023-05-19T00:55:41.567Z,9.13
2023-05-19T00:58:12.847Z,9.02
2023-05-19T01:00:44.417Z,9.10
2023-05-19T01:03:13.583Z,8.46
2023-05-19T01:05:45.062Z,9.04
2023-05-19T01:08:13.799Z,9.00
2023-05-19T01:10:44.315Z,8.96
2023-05-19T01:13:13.622Z,8.94
2023-05-19T01:15:58.978Z,8.93
2023-05-19T01:18:35.946Z,8.90
2023-05-19T01:21:27.646Z,8.91
2023-05-19T01:24:13.470Z,8.84
2023-05-19T01:27:05.824Z,8.83
2023-05-19T01:29:43.748Z,8.81
2023-05-19T01:32:17.266Z,8.79
2023-05-19T01:34:47.561Z,8.83
2023-05-19T01:37:18.732Z,8.72
2023-05-19T01:39:49.778Z,8.76
2023-05-19T01:42:19.172Z,8.74
2023-05-19T01:44:48.680Z,8.76
2023-05-19T01:47:19.642Z,8.70
2023-05-19T01:49:48.469Z,8.65
2023-05-19T01:52:17.299Z,8.61
2023-05-19T01:54:46.206Z,8.59
2023-05-19T01:57:22.525Z,8.55
2023-05-19T02:00:07.840Z,8.51
2023-05-19T02:02:57.930Z,8.48
2023-05-19T02:05:36.044Z,8.45
2023-05-19T02:08:25.515Z,8.44
2023-05-19T02:11:04.915Z,8.40
2023-05-19T02:13:38.547Z,8.39
2023-05-19T02:21:02.580Z,8.32
2023-05-19T02:23:31.507Z,8.29
2023-05-19T02:26:00.458Z,8.23
2023-05-19T02:28:32.789Z,8.28
2023-05-19T02:31:05.287Z,8.27
2023-05-19T02:33:36.466Z,8.22
2023-05-19T02:36:07.565Z,8.22
2023-05-19T02:38:36.401Z,8.18
2023-05-19T02:41:05.161Z,8.13
2023-05-19T02:43:34.050Z,8.07
2023-05-19T02:46:02.902Z,8.09
2023-05-19T02:48:31.915Z,8.11
2023-05-19T02:51:00.714Z,8.11
2023-05-19T02:53:31.792Z,7.97
2023-05-19T02:56:02.623Z,8.00
2023-05-19T02:58:33.878Z,7.99
2023-05-19T03:01:02.725Z,7.97
2023-05-19T03:03:31.860Z,7.92
2023-05-19T03:06:02.018Z,7.91
2023-05-19T03:08:32.141Z,7.90
2023-05-19T03:11:01.233Z,7.87
2023-05-19T03:13:32.101Z,7.84
2023-05-19T03:16:03.602Z,7.84
2023-05-19T03:18:32.445Z,7.83
2023-05-19T03:21:01.459Z,7.76
2023-05-19T03:23:34.122Z,7.80
2023-05-19T03:26:03.168Z,7.77
2023-05-19T03:28:32.350Z,7.76
2023-05-19T03:31:01.218Z,7.72
2023-05-19T03:33:35.752Z,7.70
2023-05-19T03:36:05.367Z,7.69
2023-05-19T03:38:39.565Z,7.70
2023-05-19T03:41:08.482Z,7.70
2023-05-19T03:43:37.344Z,7.69
2023-05-19T03:46:08.293Z,7.62
2023-05-19T03:48:49.287Z,7.73
2023-05-19T03:51:20.785Z,7.73
2023-05-19T03:53:53.745Z,7.75
2023-05-19T03:56:27.852Z,7.75
2023-05-19T03:58:56.836Z,7.64
2023-05-19T04:01:25.851Z,7.59
2023-05-19T04:03:54.854Z,7.66
2023-05-19T04:06:25.473Z,7.55
2023-05-19T04:08:58.066Z,7.70
2023-05-19T04:11:27.189Z,7.68
2023-05-19T04:13:56.170Z,7.74
2023-05-19T04:16:25.310Z,7.74
2023-05-19T04:18:54.311Z,7.76
2023-05-19T04:21:25.937Z,7.66
2023-05-19T04:24:00.032Z,7.69
2023-05-19T04:26:31.229Z,7.74
2023-05-19T04:29:04.516Z,7.73
2023-05-19T04:31:34.493Z,7.81
2023-05-19T04:34:05.215Z,7.83
2023-05-19T04:36:34.170Z,7.92
2023-05-19T04:39:07.977Z,7.93
2023-05-19T04:41:40.308Z,8.00
2023-05-19T04:44:13.580Z,8.17
2023-05-19T04:46:45.333Z,8.34
2023-05-19T04:49:14.741Z,8.42
2023-05-19T04:51:46.098Z,8.47
2023-05-19T04:54:16.307Z,8.55
2023-05-19T04:56:46.305Z,8.73
2023-05-19T04:59:15.388Z,8.91
2023-05-19T05:01:46.550Z,9.09
2023-05-19T05:04:17.405Z,9.26
2023-05-19T05:06:48.036Z,9.39
2023-05-19T05:09:20.037Z,9.43
2023-05-19T05:11:49.347Z,9.59
2023-05-19T05:14:18.746Z,9.74
2023-05-19T05:16:49.706Z,9.87
2023-05-19T05:19:24.190Z,10.02
2023-05-19T05:21:54.027Z,10.17
2023-05-19T05:24:24.986Z,10.26
2023-05-19T05:26:59.063Z,10.38
2023-05-19T05:29:28.217Z,10.38
2023-05-19T05:31:57.902Z,10.60
2023-05-19T05:34:27.208Z,10.79
2023-05-19T05:36:56.397Z,10.82
2023-05-19T05:39:29.236Z,11.19
2023-05-19T05:42:01.426Z,11.42
2023-05-19T05:44:30.559Z,11.32
2023-05-19T05:47:02.830Z,11.77
2023-05-19T05:49:32.171Z,11.89
2023-05-19T05:52:06.104Z,11.94
2023-05-19T05:54:44.087Z,11.78
2023-05-19T05:57:17.051Z,12.08
2023-05-19T05:59:48.813Z,12.42
2023-05-19T06:02:19.993Z,12.60
2023-05-19T06:04:49.121Z,12.72
2023-05-19T06:07:17.995Z,12.81
2023-05-19T06:09:48.585Z,12.92
2023-05-19T06:12:18.094Z,12.78
2023-05-19T06:14:50.217Z,12.74
2023-05-19T06:17:39.039Z,12.98
2023-05-19T06:20:10.241Z,13.28
2023-05-19T06:22:41.690Z,13.43
2023-05-19T06:25:13.934Z,13.76
2023-05-19T06:27:43.268Z,13.65
2023-05-19T06:30:12.822Z,13.54
2023-05-19T06:32:57.612Z,13.84
2023-05-19T06:35:29.937Z,13.93
2023-05-19T06:38:01.106Z,14.11
2023-05-19T06:40:31.645Z,14.22
2023-05-19T06:43:02.952Z,14.61
2023-05-19T06:45:57.229Z,14.63
2023-05-19T06:48:27.742Z,14.82
2023-05-19T06:50:57.198Z,14.96
2023-05-19T06:53:26.922Z,14.83
2023-05-19T06:56:00.150Z,14.98
2023-05-19T06:58:33.780Z,14.99
2023-05-19T07:01:07.780Z,15.26
2023-05-19T07:03:43.988Z,15.36
2023-05-19T07:06:14.253Z,15.42
2023-05-19T07:08:43.572Z,15.50
2023-05-19T07:11:18.399Z,15.34
2023-05-19T07:13:47.261Z,15.69
2023-05-19T07:16:21.909Z,15.83
2023-05-19T07:18:53.082Z,16.10
2023-05-19T07:21:22.388Z,16.05
2023-05-19T07:23:52.564Z,15.91
2023-05-19T07:26:25.251Z,15.84
2023-05-19T07:28:54.438Z,16.18
2023-05-19T07:31:23.384Z,16.43
2023-05-19T07:33:54.528Z,16.61
2023-05-19T07:36:23.800Z,16.59
2023-05-19T07:38:52.754Z,16.83
2023-05-19T07:41:21.632Z,16.99
2023-05-19T07:43:51.821Z,17.12
2023-05-19T07:46:22.205Z,16.90
2023-05-19T07:48:51.157Z,17.26
2023-05-19T07:51:19.995Z,17.44
2023-05-19T07:53:48.892Z,17.52
2023-05-19T07:56:17.826Z,17.66
2023-05-19T07:58:46.907Z,17.77
2023-05-19T08:01:17.145Z,17.86
2023-05-19T08:03:48.340Z,17.91
2023-05-19T08:06:17.309Z,17.86
2023-05-19T08:08:46.491Z,17.74
2023-05-19T08:11:15.445Z,17.60
2023-05-19T08:13:45.344Z,17.69
2023-05-19T08:16:14.288Z,17.64
2023-05-19T08:18:44.759Z,17.75
2023-05-19T08:21:13.675Z,17.94
2023-05-19T08:23:42.532Z,18.06
2023-05-19T08:26:11.364Z,18.20
2023-05-19T08:28:40.223Z,17.96
2023-05-19T08:31:09.306Z,18.34
2023-05-19T08:33:38.330Z,18.08
2023-05-19T08:36:13.195Z,18.34
2023-05-19T08:38:42.068Z,18.62
2023-05-19T08:41:11.324Z,18.76
2023-05-19T08:43:42.410Z,18.92
2023-05-19T08:46:17.009Z,18.97
2023-05-19T08:48:47.357Z,19.02
2023-05-19T08:51:25.769Z,19.07
2023-05-19T08:54:00.535Z,19.13
2023-05-19T08:56:29.501Z,19.20
2023-05-19T08:59:00.505Z,19.34
2023-05-19T09:01:32.599Z,19.32
2023-05-19T09:04:04.616Z,19.43
2023-05-19T09:06:35.216Z,19.42
2023-05-19T09:09:05.325Z,19.32
2023-05-19T09:11:35.808Z,19.20
2023-05-19T09:14:04.768Z,19.67
2023-05-19T09:16:36.381Z,19.25
2023-05-19T09:19:08.853Z,19.09
2023-05-19T09:21:39.289Z,19.26
2023-05-19T09:24:11.386Z,19.49
2023-05-19T09:26:42.028Z,19.67
2023-05-19T09:29:15.041Z,19.86
2023-05-19T09:31:51.862Z,20.09
2023-05-19T09:34:21.588Z,20.25
2023-05-19T09:36:53.491Z,20.34
2023-05-19T09:39:24.099Z,19.79
2023-05-19T09:41:54.567Z,20.47
2023-05-19T09:44:24.334Z,20.32
2023-05-19T09:46:54.636Z,20.53
2023-05-19T09:49:24.894Z,20.61
2023-05-19T09:51:57.069Z,20.49
2023-05-19T09:54:27.596Z,20.16
2023-05-19T09:57:02.250Z,20.49
2023-05-19T09:59:33.517Z,20.11
2023-05-19T10:02:03.455Z,20.75
2023-05-19T10:04:33.104Z,20.71
2023-05-19T10:07:06.051Z,20.90
2023-05-19T10:09:35.333Z,20.95
2023-05-19T10:12:05.184Z,21.07
2023-05-19T10:14:34.060Z,21.26
2023-05-19T10:17:03.034Z,20.99
2023-05-19T10:19:32.034Z,21.12
2023-05-19T10:22:01.084Z,21.30
2023-05-19T10:24:31.345Z,21.07
2023-05-19T10:27:04.736Z,21.13
2023-05-19T10:29:37.321Z,21.23
2023-05-19T10:32:08.059Z,21.44
2023-05-19T10:35:22.122Z,21.16
2023-05-19T10:37:58.893Z,21.65
2023-05-19T10:40:31.387Z,21.92
2023-05-19T10:43:15.179Z,21.54
2023-05-19T10:45:49.161Z,21.19
2023-05-19T10:48:18.546Z,21.30
2023-05-19T10:50:48.012Z,21.40
2023-05-19T10:53:18.537Z,21.56
2023-05-19T10:55:56.749Z,21.65
2023-05-19T10:58:39.360Z,21.58
2023-05-19T11:01:14.355Z,21.41
2023-05-19T11:03:47.234Z,21.60
2023-05-19T11:06:22.536Z,21.85
2023-05-19T11:08:55.045Z,21.93
2023-05-19T11:11:26.394Z,21.89
2023-05-19T11:13:56.549Z,21.39
2023-05-19T11:16:29.987Z,21.54
2023-05-19T11:19:01.688Z,21.33
2023-05-19T11:21:44.212Z,21.17
2023-05-19T11:24:36.996Z,21.29
2023-05-19T11:27:31.172Z,20.83
2023-05-19T11:30:02.049Z,21.22
2023-05-19T11:32:33.720Z,21.22
2023-05-19T11:35:06.616Z,21.30
2023-05-19T11:37:36.159Z,21.18
2023-05-19T11:40:07.041Z,21.48
2023-05-19T11:42:38.058Z,21.18
2023-05-19T11:45:08.360Z,21.31
2023-05-19T11:47:50.958Z,21.55
2023-05-19T11:50:26.680Z,21.43
2023-05-19T11:52:56.378Z,21.43
2023-05-19T11:55:26.050Z,20.83
2023-05-19T11:58:05.536Z,20.96
2023-05-19T12:00:39.233Z,20.91
2023-05-19T12:03:09.281Z,21.18
2023-05-19T12:05:42.940Z,20.88
2023-05-19T12:08:12.904Z,21.07
2023-05-19T12:10:42.436Z,21.04
2023-05-19T12:13:13.875Z,21.21
2023-05-19T12:15:45.500Z,21.13
2023-05-19T12:18:14.381Z,21.20
2023-05-19T12:20:43.539Z,21.00
2023-05-19T12:23:13.242Z,20.86
2023-05-19T12:25:42.266Z,20.92
2023-05-19T12:28:12.514Z,21.01
2023-05-19T12:30:41.606Z,20.28
2023-05-19T12:33:12.013Z,20.92
2023-05-19T12:35:41.077Z,21.18
2023-05-19T12:38:09.972Z,21.34
2023-05-19T12:40:39.740Z,21.30
2023-05-19T12:43:09.788Z,21.40
2023-05-19T12:45:42.681Z,21.31
2023-05-19T12:48:15.989Z,21.28
2023-05-19T12:50:45.913Z,21.43
2023-05-19T12:53:15.838Z,21.35
2023-05-19T14:47:28.899Z,20.16
2023-05-19T14:49:59.624Z,19.89
2023-05-19T14:52:28.538Z,19.83
2023-05-19T14:54:57.495Z,19.97
2023-05-19T14:57:26.354Z,19.88
2023-05-19T14:59:55.230Z,20.02
2023-05-19T15:02:24.181Z,20.06
2023-05-19T15:04:53.004Z,20.05
2023-05-19T15:07:24.639Z,19.98
2023-05-19T15:09:53.699Z,19.89
2023-05-19T15:12:22.622Z,19.40
2023-05-19T15:14:51.648Z,19.84
2023-05-19T15:17:20.639Z,20.02
2023-05-19T15:19:49.761Z,19.84
2023-05-19T15:22:21.494Z,19.62
2023-05-19T15:24:51.948Z,19.80
2023-05-19T15:27:20.866Z,19.94
2023-05-19T15:29:49.628Z,19.93
2023-05-19T15:32:18.472Z,19.84
2023-05-19T15:34:47.257Z,19.74
2023-05-19T15:37:16.573Z,19.77
2023-05-19T15:39:45.333Z,19.74
2023-05-19T15:42:15.508Z,19.76
2023-05-19T15:44:46.027Z,19.61
2023-05-19T15:47:14.954Z,19.69
2023-05-19T15:49:43.698Z,19.78
2023-05-19T15:52:12.790Z,19.66
2023-05-19T15:54:41.632Z,19.45
2023-05-19T15:57:10.528Z,19.14
2023-05-19T15:59:40.701Z,19.40
2023-05-19T16:02:10.030Z,19.53
2023-05-19T16:04:38.929Z,19.44
2023-05-19T16:07:07.723Z,19.52
2023-05-19T16:09:36.594Z,19.50
2023-05-19T16:12:05.700Z,19.47
2023-05-19T16:14:36.694Z,19.44
2023-05-19T16:17:11.488Z,19.62
2023-05-19T16:19:40.473Z,19.44
2023-05-19T16:22:09.249Z,19.22
2023-05-19T16:24:37.975Z,18.88
2023-05-19T16:27:06.844Z,18.91
2023-05-19T16:29:35.633Z,18.96
2023-05-19T16:32:04.731Z,19.07
2023-05-19T16:34:35.080Z,18.94
2023-05-19T16:37:03.905Z,19.05
2023-05-19T16:39:32.731Z,18.88
2023-05-19T16:42:03.593Z,18.97
2023-05-19T16:44:32.428Z,18.76
2023-05-19T16:47:01.192Z,18.62
2023-05-19T16:49:29.919Z,18.40
2023-05-19T16:52:00.041Z,18.44
2023-05-19T16:54:30.055Z,18.38
2023-05-19T16:56:58.915Z,18.30
2023-05-19T16:59:28.383Z,18.23
2023-05-19T17:01:58.312Z,18.28
2023-05-19T17:04:30.870Z,18.03
2023-05-19T17:07:01.297Z,18.15
2023-05-19T17:09:30.012Z,18.10
2023-05-19T17:12:00.850Z,17.93
2023-05-19T17:14:30.769Z,18.00
2023-05-19T17:17:02.370Z,17.65
2023-05-19T17:19:33.322Z,14.31
2023-05-19T17:22:04.006Z,14.20
2023-05-19T17:24:33.933Z,16.42
2023-05-19T17:27:05.410Z,14.75
2023-05-19T17:29:38.993Z,14.45
2023-05-19T17:32:08.588Z,14.90
2023-05-19T17:34:46.153Z,14.60
2023-05-19T17:37:21.206Z,16.81
2023-05-19T17:39:57.600Z,14.20
2023-05-19T17:43:29.931Z,17.24
2023-05-19T17:46:26.174Z,16.72
2023-05-19T17:51:26.537Z,17.25
2023-05-19T17:52:11.584Z,15.11
2023-05-19T17:54:43.793Z,17.18
2023-05-19T17:57:15.432Z,16.31
2023-05-19T17:59:50.137Z,17.07
2023-05-19T18:02:20.398Z,14.05
2023-05-19T18:04:57.045Z,15.98
2023-05-19T18:11:16.787Z,14.86
2023-05-19T18:14:17.121Z,16.92
2023-05-19T18:17:08.752Z,16.88
2023-05-19T18:19:38.169Z,16.01
2023-05-19T18:22:07.282Z,16.75
2023-05-19T18:24:39.706Z,16.74
2023-05-19T18:27:10.048Z,16.76
2023-05-19T18:29:39.610Z,14.47
2023-05-19T18:32:09.458Z,15.15
2023-05-19T18:34:38.552Z,16.15
2023-05-19T18:37:09.273Z,15.46
2023-05-19T18:39:38.663Z,14.46
2023-05-19T18:42:09.790Z,13.60
2023-05-19T18:45:33.611Z,16.17
2023-05-19T18:57:35.476Z,15.11
2023-05-19T18:57:52.272Z,12.35
2023-05-19T20:06:29.300Z,15.12
2023-05-19T20:08:58.900Z,11.62
2023-05-19T20:11:34.906Z,13.56
2023-05-19T20:17:32.914Z,14.66
2023-05-19T20:20:17.166Z,12.32
2023-05-19T20:27:38.704Z,12.59
2023-05-19T20:30:08.935Z,14.46
2023-05-19T20:32:38.011Z,14.40
2023-05-19T20:35:08.669Z,14.56
2023-05-19T20:37:37.501Z,14.44
2023-05-19T20:40:12.629Z,14.54
2023-05-19T20:42:45.243Z,14.50
2023-05-19T20:45:14.074Z,14.40
2023-05-19T20:47:43.420Z,13.32
2023-05-19T20:50:12.413Z,14.43
2023-05-19T20:52:42.372Z,13.41
2023-05-19T20:55:11.551Z,14.54
2023-05-19T20:57:43.820Z,14.16
2023-05-19T21:00:16.217Z,14.25
2023-05-19T21:02:45.366Z,14.32
2023-05-19T21:05:16.556Z,14.23
2023-05-19T21:07:46.040Z,13.23
2023-05-19T21:10:18.066Z,13.17
2023-05-19T21:12:47.126Z,11.50
2023-05-19T21:15:17.965Z,14.16
2023-05-19T21:17:47.526Z,13.74
2023-05-19T21:20:18.779Z,14.01
2023-05-19T21:22:47.909Z,12.61
2023-05-19T21:25:17.539Z,13.81
2023-05-19T21:27:50.356Z,13.96
2023-05-19T21:30:21.022Z,12.75
2023-05-19T21:32:49.893Z,14.02
2023-05-19T21:35:19.261Z,13.65
2023-05-19T21:37:48.818Z,14.00
2023-05-19T21:40:17.657Z,13.95
2023-05-19T21:42:47.118Z,13.33
2023-05-19T21:45:16.256Z,13.88
2023-05-19T21:47:47.100Z,13.85
2023-05-19T21:50:17.490Z,11.48
2023-05-19T21:52:46.628Z,13.85
2023-05-19T21:55:15.773Z,13.52
2023-05-19T21:57:44.705Z,13.32
2023-05-19T22:00:14.997Z,13.80
2023-05-19T22:02:44.044Z,13.32
2023-05-19T22:05:14.522Z,13.84
2023-05-19T22:07:43.612Z,12.98
2023-05-19T22:10:13.477Z,13.80
2023-05-19T22:12:42.590Z,13.63
2023-05-19T22:15:14.619Z,13.07
2023-05-19T22:17:43.833Z,13.30
2023-05-19T22:20:14.761Z,13.63
2023-05-19T22:22:43.856Z,13.54
2023-05-19T22:25:15.871Z,12.99
2023-05-19T22:27:44.695Z,13.19
2023-05-19T22:30:13.541Z,13.30
2023-05-19T22:32:42.189Z,13.28
2023-05-19T22:35:12.489Z,13.28
2023-05-19T22:37:42.732Z,13.29
2023-05-19T22:40:12.359Z,13.35
2023-05-19T22:42:41.389Z,10.68
2023-05-19T22:45:12.809Z,13.18
2023-05-19T22:47:42.316Z,11.35
2023-05-19T22:50:13.711Z,13.11
2023-05-19T22:52:43.954Z,13.21
2023-05-19T22:55:13.250Z,13.10
2023-05-19T22:57:42.073Z,12.78
2023-05-19T23:00:14.128Z,13.06
2023-05-19T23:02:43.063Z,12.97
2023-05-19T23:05:12.341Z,10.73
2023-05-19T23:07:41.282Z,11.28
2023-05-19T23:10:12.813Z,12.75
2023-05-19T23:12:41.634Z,12.77
2023-05-19T23:15:12.190Z,12.69
2023-05-19T23:17:41.273Z,12.63
2023-05-19T23:20:14.034Z,12.59
2023-05-19T23:22:43.152Z,12.65
2023-05-19T23:25:13.661Z,9.63
2023-05-19T23:27:42.758Z,12.59
2023-05-19T23:30:12.271Z,12.50
2023-05-19T23:32:41.288Z,12.60
2023-05-19T23:35:11.758Z,12.64
2023-05-19T23:37:41.206Z,11.87
2023-05-19T23:40:10.702Z,12.26
2023-05-19T23:42:41.176Z,12.56
2023-05-19T23:45:10.778Z,10.83
2023-05-19T23:47:39.598Z,9.78
2023-05-19T23:50:09.814Z,12.34
2023-05-19T23:52:38.675Z,11.93
2023-05-19T23:55:12.810Z,12.31
2023-05-19T23:57:43.064Z,12.36
